createdAt,value
2023-07-10T00:00:40.024Z,98.57
2023-07-10T00:01:40.131Z,98.83
2023-07-10T00:02:40.082Z,99.48
2023-07-10T00:03:40.149Z,98.63
2023-07-10T00:04:40.104Z,92.74
2023-07-10T00:05:41.121Z,98.35
2023-07-10T00:06:40.144Z,97.76
2023-07-10T00:07:41.146Z,97.68
2023-07-10T00:08:42.938Z,95.91
2023-07-10T00:09:41.158Z,96.16
2023-07-10T00:10:41.153Z,96.17
2023-07-10T00:11:40.125Z,96.87
2023-07-10T00:12:40.123Z,99.20
2023-07-10T00:13:40.162Z,99.01
2023-07-10T00:14:40.132Z,96.80
2023-07-10T00:15:40.117Z,97.39
2023-07-10T00:16:40.116Z,94.00
2023-07-10T00:17:40.161Z,93.81
2023-07-10T00:18:41.298Z,97.37
2023-07-10T00:19:40.099Z,99.07
2023-07-10T00:20:40.078Z,93.61
2023-07-10T00:21:41.067Z,97.50
2023-07-10T00:22:40.071Z,97.05
2023-07-10T00:23:41.055Z,96.21
2023-07-10T00:24:40.048Z,98.71
2023-07-10T00:25:40.029Z,98.10
2023-07-10T00:26:40.027Z,96.76
2023-07-10T00:27:40.028Z,96.94
2023-07-10T00:28:40.044Z,92.41
2023-07-10T00:29:41.008Z,93.95
2023-07-10T00:30:40.065Z,95.40
2023-07-10T00:31:40.999Z,94.04
2023-07-10T00:32:41.035Z,96.97
2023-07-10T00:33:41.017Z,96.37
2023-07-10T00:34:40.989Z,100.78
2023-07-10T00:35:39.996Z,92.54
2023-07-10T00:36:40.968Z,94.27
2023-07-10T00:37:39.956Z,94.70
2023-07-10T00:38:40.966Z,96.21
2023-07-10T00:39:40.010Z,96.71
2023-07-10T00:40:40.945Z,98.56
2023-07-10T00:41:40.923Z,93.28
2023-07-10T00:42:39.930Z,98.19
2023-07-10T00:43:39.993Z,90.91
2023-07-10T00:44:40.905Z,96.02
2023-07-10T00:45:39.895Z,96.87
2023-07-10T00:46:40.986Z,93.88
2023-07-10T00:47:40.928Z,96.60
2023-07-10T00:48:39.869Z,94.07
2023-07-10T00:49:40.913Z,94.50
2023-07-10T00:50:39.878Z,93.96
2023-07-10T00:51:39.858Z,98.99
2023-07-10T00:52:39.871Z,95.66
2023-07-10T00:53:40.850Z,95.42
2023-07-10T00:54:40.839Z,98.99
2023-07-10T00:55:39.824Z,95.15
2023-07-10T00:56:40.839Z,97.66
2023-07-10T00:57:40.802Z,91.67
2023-07-10T00:58:40.820Z,93.67
2023-07-10T00:59:40.809Z,95.04
2023-07-10T01:00:39.805Z,92.30
2023-07-10T01:01:39.778Z,94.14
2023-07-10T01:02:41.003Z,98.60
2023-07-10T01:03:39.779Z,94.61
2023-07-10T01:04:39.773Z,96.73
2023-07-10T01:05:40.785Z,98.77
2023-07-10T01:06:39.763Z,96.51
2023-07-10T01:07:39.741Z,95.37
2023-07-10T01:08:40.743Z,97.82
2023-07-10T01:09:39.729Z,96.08
2023-07-10T01:10:40.727Z,94.70
2023-07-10T01:11:39.727Z,94.35
2023-07-10T01:12:40.703Z,93.22
2023-07-10T01:13:40.755Z,95.35
2023-07-10T01:14:39.716Z,92.93
2023-07-10T01:15:40.687Z,91.67
2023-07-10T01:16:40.730Z,95.54
2023-07-10T01:17:39.767Z,93.89
2023-07-10T01:18:39.686Z,96.51
2023-07-10T01:19:40.698Z,92.38
2023-07-10T01:20:40.678Z,96.78
2023-07-10T01:21:40.689Z,93.08
2023-07-10T01:22:40.642Z,94.80
2023-07-10T01:23:39.646Z,95.01
2023-07-10T01:24:40.646Z,94.13
2023-07-10T01:25:40.648Z,95.81
2023-07-10T01:26:39.621Z,96.91
2023-07-10T01:27:39.636Z,98.40
2023-07-10T01:28:39.639Z,93.55
2023-07-10T01:29:40.681Z,96.50
2023-07-10T01:30:40.622Z,94.01
2023-07-10T01:31:39.583Z,97.62
2023-07-10T01:32:39.595Z,93.51
2023-07-10T01:33:39.572Z,94.51
2023-07-10T01:34:39.602Z,95.87
2023-07-10T01:35:40.558Z,94.98
2023-07-10T01:36:39.562Z,92.73
2023-07-10T01:37:40.584Z,91.96
2023-07-10T01:38:39.548Z,92.43
2023-07-10T01:39:40.546Z,94.74
2023-07-10T01:40:39.567Z,91.99
2023-07-10T01:41:40.569Z,91.96
2023-07-10T01:42:40.584Z,94.19
2023-07-10T01:43:39.612Z,93.58
2023-07-10T01:44:39.612Z,95.18
2023-07-10T01:45:39.618Z,90.04
2023-07-10T01:46:39.641Z,94.35
2023-07-10T01:47:40.699Z,90.64
2023-07-10T01:48:40.752Z,93.24
2023-07-10T01:49:40.697Z,92.28
2023-07-10T01:50:40.704Z,95.94
2023-07-10T01:51:40.704Z,91.92
2023-07-10T01:52:39.737Z,92.95
2023-07-10T01:53:40.770Z,92.03
2023-07-10T01:54:39.761Z,92.37
2023-07-10T01:55:39.786Z,94.68
2023-07-10T01:56:40.787Z,91.00
2023-07-10T01:57:39.820Z,94.76
2023-07-10T01:58:40.815Z,90.14
2023-07-10T01:59:40.899Z,89.96
2023-07-10T02:00:40.868Z,90.57
2023-07-10T02:01:42.548Z,91.26
2023-07-10T02:02:39.906Z,89.30
2023-07-10T02:03:39.954Z,92.01
2023-07-10T02:04:40.856Z,90.85
2023-07-10T02:05:40.850Z,93.02
2023-07-10T02:06:40.863Z,91.48
2023-07-10T02:07:40.820Z,93.46
2023-07-10T02:08:40.837Z,92.68
2023-07-10T02:09:40.846Z,93.46
2023-07-10T02:10:45.078Z,90.48
2023-07-10T02:11:39.800Z,90.82
2023-07-10T02:12:40.783Z,91.62
2023-07-10T02:13:39.841Z,92.23
2023-07-10T02:14:40.789Z,91.89
2023-07-10T02:15:40.794Z,94.29
2023-07-10T02:16:39.775Z,94.50
2023-07-10T02:17:39.858Z,89.36
2023-07-10T02:18:40.755Z,92.37
2023-07-10T02:19:40.749Z,93.08
2023-07-10T02:20:39.741Z,92.42
2023-07-10T02:21:40.730Z,91.55
2023-07-10T02:22:40.731Z,94.03
2023-07-10T02:23:40.706Z,90.49
2023-07-10T02:24:39.712Z,91.10
2023-07-10T02:25:40.765Z,91.18
2023-07-10T02:26:39.727Z,90.32
2023-07-10T02:27:40.691Z,92.79
2023-07-10T02:28:40.693Z,92.27
2023-07-10T02:29:39.674Z,91.82
2023-07-10T02:30:40.681Z,89.38
2023-07-10T02:31:40.682Z,89.82
2023-07-10T02:32:40.701Z,87.54
2023-07-10T02:33:40.693Z,90.66
2023-07-10T02:34:40.647Z,89.26
2023-07-10T02:35:40.637Z,89.41
2023-07-10T02:36:39.626Z,88.28
2023-07-10T02:37:39.633Z,87.96
2023-07-10T02:38:40.606Z,87.97
2023-07-10T02:39:40.636Z,91.98
2023-07-10T02:40:39.616Z,88.91
2023-07-10T02:41:39.638Z,88.56
2023-07-10T02:42:40.590Z,85.17
2023-07-10T02:43:40.589Z,88.61
2023-07-10T02:44:40.595Z,87.61
2023-07-10T02:45:39.591Z,87.34
2023-07-10T02:46:40.625Z,86.43
2023-07-10T02:47:40.588Z,87.01
2023-07-10T02:48:40.546Z,84.90
2023-07-10T02:49:40.560Z,88.20
2023-07-10T02:50:39.547Z,87.53
2023-07-10T02:51:40.549Z,84.64
2023-07-10T02:52:39.537Z,90.98
2023-07-10T02:53:40.531Z,90.69
2023-07-10T02:54:40.522Z,88.87
2023-07-10T02:55:40.532Z,89.54
2023-07-10T02:56:39.508Z,86.54
2023-07-10T02:57:40.607Z,89.87
2023-07-10T02:58:40.487Z,88.75
2023-07-10T02:59:40.482Z,86.99
2023-07-10T03:00:40.492Z,91.71
2023-07-10T03:01:40.510Z,87.31
2023-07-10T03:02:39.491Z,89.82
2023-07-10T03:03:40.444Z,83.62
2023-07-10T03:04:40.465Z,85.52
2023-07-10T03:05:40.434Z,83.79
2023-07-10T03:06:39.698Z,88.02
2023-07-10T03:07:40.435Z,85.16
2023-07-10T03:08:40.410Z,84.75
2023-07-10T03:09:39.406Z,89.84
2023-07-10T03:10:39.402Z,89.75
2023-07-10T03:11:40.403Z,83.72
2023-07-10T03:12:40.389Z,86.88
2023-07-10T03:13:40.409Z,85.68
2023-07-10T03:14:39.400Z,91.85
2023-07-10T03:15:40.397Z,85.73
2023-07-10T03:16:40.371Z,85.07
2023-07-10T03:17:40.428Z,89.13
2023-07-10T03:18:39.405Z,85.07
2023-07-10T03:19:40.352Z,90.68
2023-07-10T03:20:39.365Z,84.96
2023-07-10T03:21:40.410Z,88.84
2023-07-10T03:22:39.418Z,85.26
2023-07-10T03:23:40.420Z,85.77
2023-07-10T03:24:40.461Z,89.21
2023-07-10T03:25:39.469Z,85.76
2023-07-10T03:26:39.514Z,88.60
2023-07-10T03:27:40.525Z,84.57
2023-07-10T03:28:40.537Z,86.25
2023-07-10T03:29:40.584Z,88.06
2023-07-10T03:30:40.597Z,87.33
2023-07-10T03:31:40.609Z,86.57
2023-07-10T03:32:39.684Z,87.88
2023-07-10T03:33:39.664Z,88.35
2023-07-10T03:34:39.670Z,89.36
2023-07-10T03:35:40.705Z,86.83
2023-07-10T03:36:39.721Z,83.63
2023-07-10T03:37:40.759Z,86.71
2023-07-10T03:38:39.785Z,84.89
2023-07-10T03:39:40.839Z,85.56
2023-07-10T03:40:40.841Z,85.87
2023-07-10T03:41:40.889Z,87.21
2023-07-10T03:42:39.864Z,85.31
2023-07-10T03:43:40.892Z,87.52
2023-07-10T03:44:40.920Z,89.04
2023-07-10T03:45:39.979Z,88.71
2023-07-10T03:46:41.045Z,89.51
2023-07-10T03:47:40.023Z,86.01
2023-07-10T03:48:41.044Z,85.45
2023-07-10T03:49:41.076Z,87.82
2023-07-10T03:50:41.114Z,86.35
2023-07-10T03:51:40.150Z,84.48
2023-07-10T03:52:40.169Z,83.66
2023-07-10T03:53:40.193Z,83.34
2023-07-10T03:54:40.228Z,85.71
2023-07-10T03:55:40.285Z,87.90
2023-07-10T03:56:40.289Z,84.16
2023-07-10T03:57:40.310Z,84.78
2023-07-10T03:58:41.346Z,86.65
2023-07-10T03:59:41.364Z,85.40
2023-07-10T04:00:40.461Z,82.71
2023-07-10T04:01:41.455Z,87.37
2023-07-10T04:02:40.478Z,81.71
2023-07-10T04:03:40.586Z,80.86
2023-07-10T04:04:41.519Z,85.97
2023-07-10T04:05:41.528Z,83.99
2023-07-10T04:06:41.624Z,85.08
2023-07-10T04:07:40.582Z,85.47
2023-07-10T04:08:40.602Z,82.63
2023-07-10T04:09:41.633Z,85.42
2023-07-10T04:10:41.652Z,85.56
2023-07-10T04:11:40.692Z,82.61
2023-07-10T04:12:40.733Z,80.27
2023-07-10T04:13:40.781Z,83.64
2023-07-10T04:14:41.820Z,81.08
2023-07-10T04:15:40.818Z,78.74
2023-07-10T04:16:40.851Z,83.07
2023-07-10T04:17:40.940Z,80.63
2023-07-10T04:18:40.913Z,82.17
2023-07-10T04:19:41.963Z,82.20
2023-07-10T04:20:41.990Z,80.75
2023-07-10T04:21:42.034Z,80.12
2023-07-10T04:22:41.053Z,80.08
2023-07-10T04:23:42.107Z,79.93
2023-07-10T04:24:41.145Z,78.91
2023-07-10T04:25:41.192Z,77.35
2023-07-10T04:26:41.223Z,76.35
2023-07-10T04:27:42.287Z,76.84
2023-07-10T04:28:42.278Z,76.12
2023-07-10T04:29:42.314Z,76.65
2023-07-10T04:31:41.397Z,71.68
2023-07-10T04:32:42.434Z,78.47
2023-07-10T04:33:42.481Z,74.36
2023-07-10T04:34:41.509Z,74.70
2023-07-10T04:35:42.550Z,74.34
2023-07-10T04:36:42.561Z,75.89
2023-07-10T04:37:42.608Z,75.92
2023-07-10T04:38:41.654Z,70.84
2023-07-10T04:39:44.698Z,73.99
2023-07-10T04:40:41.705Z,74.07
2023-07-10T04:41:42.698Z,74.01
2023-07-10T04:42:42.676Z,75.14
2023-07-10T04:43:41.677Z,75.55
2023-07-10T04:44:42.657Z,75.18
2023-07-10T04:45:42.659Z,76.49
2023-07-10T04:46:42.709Z,74.97
2023-07-10T04:47:41.702Z,71.43
2023-07-10T04:48:42.650Z,71.54
2023-07-10T04:49:42.659Z,73.04
2023-07-10T04:50:42.625Z,71.83
2023-07-10T04:51:42.620Z,71.81
2023-07-10T04:52:42.626Z,70.93
2023-07-10T04:53:42.620Z,72.88
2023-07-10T04:54:42.606Z,71.51
2023-07-10T04:55:41.606Z,71.44
2023-07-10T04:56:42.575Z,67.99
2023-07-10T04:57:41.578Z,66.95
2023-07-10T04:58:41.562Z,70.41
2023-07-10T04:59:41.587Z,69.36
2023-07-10T05:00:42.555Z,68.03
2023-07-10T05:01:42.549Z,70.72
2023-07-10T05:02:41.628Z,66.04
2023-07-10T05:03:42.530Z,69.27
2023-07-10T05:04:42.612Z,71.99
2023-07-10T05:05:42.568Z,67.35
2023-07-10T05:06:42.509Z,69.04
2023-07-10T05:07:41.553Z,70.70
2023-07-10T05:08:42.716Z,63.98
2023-07-10T05:09:42.634Z,71.08
2023-07-10T05:10:42.679Z,67.02
2023-07-10T05:11:41.731Z,66.96
2023-07-10T05:12:42.750Z,68.95
2023-07-10T05:13:42.855Z,68.20
2023-07-10T05:14:42.823Z,67.98
2023-07-10T05:15:42.884Z,61.84
2023-07-10T05:16:42.973Z,67.83
2023-07-10T05:17:42.975Z,67.05
2023-07-10T05:18:42.993Z,64.62
2023-07-10T05:19:43.026Z,66.65
2023-07-10T05:20:42.056Z,66.92
2023-07-10T05:21:43.128Z,65.92
2023-07-10T05:22:42.146Z,62.97
2023-07-10T05:23:42.209Z,64.10
2023-07-10T05:24:42.254Z,62.93
2023-07-10T05:25:43.295Z,66.18
2023-07-10T05:26:43.330Z,67.56
2023-07-10T05:27:43.391Z,63.11
2023-07-10T05:28:43.432Z,65.38
2023-07-10T05:29:42.458Z,61.32
2023-07-10T05:30:43.504Z,64.65
2023-07-10T05:31:43.623Z,64.08
2023-07-10T05:32:43.618Z,65.23
2023-07-10T05:33:43.621Z,60.26
2023-07-10T05:34:43.658Z,60.39
2023-07-10T05:35:42.691Z,61.66
2023-07-10T05:36:43.720Z,60.77
2023-07-10T05:37:42.789Z,59.94
2023-07-10T05:38:43.828Z,60.00
2023-07-10T05:39:42.858Z,60.48
2023-07-10T05:40:43.922Z,59.72
2023-07-10T05:41:42.958Z,58.24
2023-07-10T05:42:42.991Z,58.65
2023-07-10T05:43:43.036Z,61.95
2023-07-10T05:44:44.073Z,60.56
2023-07-10T05:45:44.180Z,56.03
2023-07-10T05:46:43.231Z,61.76
2023-07-10T05:47:43.282Z,56.60
2023-07-10T05:48:44.265Z,58.65
2023-07-10T05:49:43.304Z,60.14
2023-07-10T05:50:44.366Z,57.73
2023-07-10T05:51:43.373Z,57.01
2023-07-10T05:52:44.484Z,60.28
2023-07-10T05:53:43.440Z,57.98
2023-07-10T05:54:44.482Z,57.61
2023-07-10T05:55:43.517Z,59.42
2023-07-10T05:56:43.566Z,55.21
2023-07-10T05:57:43.597Z,58.53
2023-07-10T05:58:44.644Z,58.47
2023-07-10T05:59:44.676Z,56.92
2023-07-10T06:00:43.714Z,57.45
2023-07-10T06:01:44.811Z,54.68
2023-07-10T06:02:43.846Z,56.36
2023-07-10T06:03:43.848Z,59.35
2023-07-10T06:04:44.867Z,56.65
2023-07-10T06:05:44.895Z,55.33
2023-07-10T06:06:44.941Z,58.24
2023-07-10T06:07:44.985Z,55.02
2023-07-10T06:08:44.043Z,57.70
2023-07-10T06:09:45.045Z,58.13
2023-07-10T06:10:44.103Z,57.93
2023-07-10T06:11:44.128Z,53.47
2023-07-10T06:12:44.166Z,55.72
2023-07-10T06:13:45.254Z,56.21
2023-07-10T06:14:44.237Z,56.18
2023-07-10T06:15:44.293Z,53.14
2023-07-10T06:16:45.322Z,53.34
2023-07-10T06:17:44.483Z,54.80
2023-07-10T06:18:44.404Z,52.52
2023-07-10T06:19:44.436Z,54.17
2023-07-10T06:20:45.480Z,51.00
2023-07-10T06:21:44.526Z,56.22
2023-07-10T06:22:44.560Z,55.79
2023-07-10T06:23:44.652Z,54.78
2023-07-10T06:24:44.673Z,54.23
2023-07-10T06:25:45.692Z,52.37
2023-07-10T06:26:45.749Z,56.52
2023-07-10T06:27:44.760Z,57.05
2023-07-10T06:28:44.814Z,54.94
2023-07-10T06:29:44.864Z,50.35
2023-07-10T06:30:45.902Z,52.18
2023-07-10T06:31:45.993Z,54.65
2023-07-10T06:32:46.032Z,55.46
2023-07-10T06:33:45.033Z,54.76
2023-07-10T06:34:45.099Z,52.96
2023-07-10T06:35:45.102Z,54.86
2023-07-10T06:36:45.172Z,53.29
2023-07-10T06:37:45.208Z,55.12
2023-07-10T06:38:45.273Z,56.82
2023-07-10T06:39:46.287Z,58.22
2023-07-10T06:40:46.366Z,52.99
2023-07-10T06:41:46.381Z,54.56
2023-07-10T06:42:45.427Z,54.70
2023-07-10T06:43:46.456Z,53.24
2023-07-10T06:44:46.498Z,52.52
2023-07-10T06:45:46.613Z,52.89
2023-07-10T06:46:46.676Z,50.95
2023-07-10T06:47:46.655Z,51.95
2023-07-10T06:48:46.671Z,53.16
2023-07-10T06:49:46.688Z,52.22
2023-07-10T06:50:46.725Z,48.38
2023-07-10T06:51:45.769Z,49.91
2023-07-10T06:52:46.806Z,53.42
2023-07-10T06:53:46.841Z,49.37
2023-07-10T06:54:46.870Z,54.00
2023-07-10T06:55:46.905Z,53.88
2023-07-10T06:56:46.979Z,52.08
2023-07-10T06:57:46.960Z,53.23
2023-07-10T06:58:47.011Z,52.56
2023-07-10T06:59:47.032Z,50.74
2023-07-10T07:00:47.132Z,50.19
2023-07-10T07:01:47.153Z,48.28
2023-07-10T07:02:46.198Z,51.10
2023-07-10T07:03:47.214Z,50.59
2023-07-10T07:04:48.037Z,50.96
2023-07-10T07:05:47.197Z,52.21
2023-07-10T07:06:47.186Z,49.58
2023-07-10T07:07:47.186Z,51.43
2023-07-10T07:08:46.178Z,47.36
2023-07-10T07:09:46.163Z,51.65
2023-07-10T07:10:46.169Z,50.19
2023-07-10T07:11:46.166Z,48.79
2023-07-10T07:12:46.166Z,52.28
2023-07-10T07:13:46.170Z,50.84
2023-07-10T07:14:47.132Z,49.65
2023-07-10T07:15:46.116Z,50.10
2023-07-10T07:16:47.187Z,49.29
2023-07-10T07:17:46.133Z,51.07
2023-07-10T07:18:48.434Z,49.10
2023-07-10T07:19:47.108Z,49.34
2023-07-10T07:20:47.089Z,49.72
2023-07-10T07:21:47.092Z,49.64
2023-07-10T07:22:46.080Z,50.97
2023-07-10T07:23:46.082Z,51.54
2023-07-10T07:24:47.102Z,46.62
2023-07-10T07:25:47.081Z,46.20
2023-07-10T07:26:47.139Z,49.79
2023-07-10T07:27:47.068Z,47.41
2023-07-10T07:28:47.075Z,51.91
2023-07-10T07:29:47.044Z,45.21
2023-07-10T07:30:47.042Z,48.13
2023-07-10T07:31:46.035Z,47.32
2023-07-10T07:32:47.048Z,44.78
2023-07-10T07:33:47.027Z,45.38
2023-07-10T07:34:46.001Z,43.01
2023-07-10T07:35:47.063Z,46.91
2023-07-10T07:36:46.010Z,45.92
2023-07-10T07:37:45.996Z,47.48
2023-07-10T07:38:46.985Z,47.72
2023-07-10T07:39:46.999Z,47.89
2023-07-10T07:40:46.564Z,46.36
2023-07-10T07:41:45.984Z,49.27
2023-07-10T07:42:45.948Z,47.93
2023-07-10T07:43:45.953Z,43.47
2023-07-10T07:44:46.984Z,44.61
2023-07-10T07:45:45.928Z,47.98
2023-07-10T07:46:45.951Z,46.44
2023-07-10T07:47:46.055Z,46.63
2023-07-10T07:48:45.922Z,44.97
2023-07-10T07:49:46.920Z,45.83
2023-07-10T07:50:46.890Z,43.75
2023-07-10T07:51:45.917Z,46.25
2023-07-10T07:52:45.877Z,42.81
2023-07-10T07:53:46.900Z,47.21
2023-07-10T07:54:46.887Z,44.92
2023-07-10T07:55:46.866Z,47.35
2023-07-10T07:56:46.885Z,47.21
2023-07-10T07:57:46.847Z,45.16
2023-07-10T07:58:46.920Z,44.55
2023-07-10T07:59:45.881Z,48.49
2023-07-10T08:00:45.928Z,45.53
2023-07-10T08:01:46.929Z,47.75
2023-07-10T08:02:46.998Z,47.59
2023-07-10T08:03:46.095Z,47.76
2023-07-10T08:04:47.049Z,49.24
2023-07-10T08:05:47.157Z,46.47
2023-07-10T08:06:47.023Z,48.47
2023-07-10T08:07:47.051Z,47.47
2023-07-10T08:08:47.054Z,49.13
2023-07-10T08:09:47.068Z,47.26
2023-07-10T08:10:46.068Z,46.29
2023-07-10T08:11:47.092Z,45.35
2023-07-10T08:12:47.097Z,43.86
2023-07-10T08:13:47.123Z,48.58
2023-07-10T08:14:46.143Z,46.99
2023-07-10T08:15:47.200Z,46.33
2023-07-10T08:16:47.208Z,44.01
2023-07-10T08:17:47.225Z,49.67
2023-07-10T08:18:46.203Z,41.16
2023-07-10T08:19:46.217Z,46.62
2023-07-10T08:20:46.248Z,47.87
2023-07-10T08:21:47.258Z,46.86
2023-07-10T08:22:47.269Z,45.15
2023-07-10T08:23:46.279Z,40.73
2023-07-10T08:24:47.278Z,42.65
2023-07-10T08:25:46.303Z,42.95
2023-07-10T08:26:46.296Z,40.22
2023-07-10T08:27:47.325Z,39.48
2023-07-10T08:28:46.310Z,42.29
2023-07-10T08:29:47.312Z,40.69
2023-07-10T08:30:47.371Z,39.26
2023-07-10T08:31:46.348Z,41.67
2023-07-10T08:32:46.365Z,38.27
2023-07-10T08:33:46.323Z,40.49
2023-07-10T08:34:46.349Z,42.07
2023-07-10T08:35:47.340Z,40.76
2023-07-10T08:36:47.363Z,40.71
2023-07-10T08:37:46.344Z,40.66
2023-07-10T08:38:47.372Z,39.35
2023-07-10T08:39:47.365Z,43.47
2023-07-10T08:40:46.373Z,41.16
2023-07-10T08:41:47.367Z,43.17
2023-07-10T08:42:47.363Z,41.58
2023-07-10T08:43:47.377Z,40.45
2023-07-10T08:44:47.380Z,38.82
2023-07-10T08:45:46.391Z,40.03
2023-07-10T08:46:46.481Z,38.67
2023-07-10T08:47:47.524Z,40.75
2023-07-10T08:48:47.399Z,39.90
2023-07-10T08:49:46.421Z,39.77
2023-07-10T08:50:46.395Z,40.46
2023-07-10T08:51:46.401Z,42.34
2023-07-10T08:52:47.434Z,38.90
2023-07-10T08:53:46.402Z,40.32
2023-07-10T08:54:47.399Z,38.48
2023-07-10T08:55:47.402Z,38.77
2023-07-10T08:56:47.386Z,40.39
2023-07-10T08:57:47.401Z,39.52
2023-07-10T08:58:46.373Z,40.08
2023-07-10T08:59:47.409Z,42.32
2023-07-10T09:00:47.379Z,37.85
2023-07-10T09:01:47.448Z,37.72
2023-07-10T09:02:47.378Z,41.85
2023-07-10T09:03:47.425Z,35.86
2023-07-10T09:04:46.364Z,41.13
2023-07-10T09:05:47.385Z,42.29
2023-07-10T09:06:46.356Z,43.27
2023-07-10T09:07:46.344Z,41.41
2023-07-10T09:08:46.334Z,42.22
2023-07-10T09:09:46.348Z,42.53
2023-07-10T09:10:47.360Z,39.57
2023-07-10T09:11:47.339Z,39.81
2023-07-10T09:12:46.336Z,41.23
2023-07-10T09:13:47.384Z,41.54
2023-07-10T09:14:47.339Z,40.61
2023-07-10T09:15:47.308Z,40.59
2023-07-10T09:16:47.422Z,38.02
2023-07-10T09:17:46.373Z,42.46
2023-07-10T09:18:47.332Z,39.09
2023-07-10T09:19:46.382Z,45.69
2023-07-10T09:20:47.337Z,41.24
2023-07-10T09:21:47.324Z,39.01
2023-07-10T09:22:47.357Z,41.56
2023-07-10T09:23:47.307Z,40.86
2023-07-10T09:24:46.354Z,41.67
2023-07-10T09:25:46.361Z,38.25
2023-07-10T09:26:47.352Z,43.07
2023-07-10T09:27:47.320Z,39.10
2023-07-10T09:28:47.373Z,41.11
2023-07-10T09:29:47.372Z,40.78
2023-07-10T09:30:46.362Z,43.32
2023-07-10T09:31:46.490Z,42.12
2023-07-10T09:32:46.477Z,45.70
2023-07-10T09:33:47.441Z,40.46
2023-07-10T09:34:47.499Z,43.56
2023-07-10T09:35:47.529Z,41.59
2023-07-10T09:36:47.553Z,39.08
2023-07-10T09:37:46.550Z,43.29
2023-07-10T09:38:47.575Z,44.25
2023-07-10T09:39:46.588Z,39.02
2023-07-10T09:40:46.617Z,44.67
2023-07-10T09:41:46.598Z,41.72
2023-07-10T09:42:47.611Z,38.86
2023-07-10T09:43:46.616Z,38.22
2023-07-10T09:44:46.647Z,40.25
2023-07-10T09:45:46.651Z,42.67
2023-07-10T09:46:49.571Z,41.12
2023-07-10T09:47:46.682Z,41.25
2023-07-10T09:48:46.652Z,41.45
2023-07-10T09:49:47.759Z,42.12
2023-07-10T09:50:47.627Z,42.02
2023-07-10T09:51:47.648Z,39.13
2023-07-10T09:52:47.613Z,41.07
2023-07-10T09:53:47.606Z,39.85
2023-07-10T09:54:46.590Z,38.90
2023-07-10T09:55:46.605Z,39.93
2023-07-10T09:56:46.593Z,41.43
2023-07-10T09:57:46.577Z,39.83
2023-07-10T09:58:47.574Z,39.95
2023-07-10T09:59:47.562Z,42.29
2023-07-10T10:00:46.554Z,38.56
2023-07-10T10:01:46.572Z,42.30
2023-07-10T10:02:46.600Z,37.76
2023-07-10T10:03:47.610Z,39.40
2023-07-10T10:04:46.519Z,41.59
2023-07-10T10:05:46.538Z,36.18
2023-07-10T10:06:47.517Z,37.63
2023-07-10T10:07:47.586Z,41.95
2023-07-10T10:08:46.515Z,40.80
2023-07-10T10:09:47.563Z,39.61
2023-07-10T10:10:46.495Z,40.15
2023-07-10T10:11:46.479Z,39.68
2023-07-10T10:12:47.496Z,38.61
2023-07-10T10:13:47.473Z,43.98
2023-07-10T10:14:46.475Z,43.80
2023-07-10T10:15:47.451Z,39.81
2023-07-10T10:16:47.459Z,41.04
2023-07-10T10:17:46.613Z,38.24
2023-07-10T10:18:47.590Z,39.50
2023-07-10T10:19:46.455Z,37.19
2023-07-10T10:20:46.471Z,38.81
2023-07-10T10:21:47.523Z,41.24
2023-07-10T10:22:47.579Z,38.26
2023-07-10T10:23:46.639Z,39.91
2023-07-10T10:24:47.664Z,39.91
2023-07-10T10:25:46.684Z,41.27
2023-07-10T10:26:46.744Z,41.11
2023-07-10T10:27:47.772Z,39.43
2023-07-10T10:28:46.818Z,39.70
2023-07-10T10:29:46.817Z,41.70
2023-07-10T10:30:47.864Z,40.20
2023-07-10T10:31:47.981Z,42.46
2023-07-10T10:32:47.016Z,42.55
2023-07-10T10:33:47.013Z,39.66
2023-07-10T10:34:47.051Z,38.70
2023-07-10T10:35:47.100Z,39.14
2023-07-10T10:36:47.165Z,39.01
2023-07-10T10:37:48.196Z,42.96
2023-07-10T10:38:48.225Z,35.58
2023-07-10T10:39:48.269Z,40.78
2023-07-10T10:40:48.249Z,40.76
2023-07-10T10:41:47.279Z,42.18
2023-07-10T10:42:48.334Z,41.84
2023-07-10T10:43:48.328Z,43.03
2023-07-10T10:44:48.424Z,43.85
2023-07-10T10:45:47.451Z,48.25
2023-07-10T10:46:48.402Z,40.86
2023-07-10T10:47:47.473Z,42.17
2023-07-10T10:48:47.479Z,41.24
2023-07-10T10:49:48.473Z,42.14
2023-07-10T10:50:48.482Z,40.04
2023-07-10T10:51:48.523Z,41.60
2023-07-10T10:52:48.542Z,40.34
2023-07-10T10:53:48.581Z,41.88
2023-07-10T10:54:48.588Z,42.99
2023-07-10T10:55:48.705Z,41.33
2023-07-10T10:56:48.659Z,40.11
2023-07-10T10:57:47.702Z,40.37
2023-07-10T10:58:47.739Z,41.78
2023-07-10T10:59:47.778Z,41.73
2023-07-10T11:00:48.811Z,40.77
2023-07-10T11:01:47.928Z,42.30
2023-07-10T11:02:48.985Z,38.63
2023-07-10T11:03:49.030Z,42.18
2023-07-10T11:04:49.007Z,40.29
2023-07-10T11:05:48.131Z,39.76
2023-07-10T11:06:49.120Z,39.80
2023-07-10T11:07:48.205Z,38.09
2023-07-10T11:08:48.250Z,35.49
2023-07-10T11:09:48.277Z,36.68
2023-07-10T11:10:48.339Z,37.38
2023-07-10T11:11:48.401Z,38.47
2023-07-10T11:12:49.429Z,41.53
2023-07-10T11:13:49.505Z,39.21
2023-07-10T11:14:48.532Z,34.04
2023-07-10T11:15:48.728Z,37.49
2023-07-10T11:16:48.648Z,39.19
2023-07-10T11:17:48.759Z,38.32
2023-07-10T11:18:49.758Z,36.86
2023-07-10T11:19:48.806Z,39.30
2023-07-10T11:20:49.861Z,36.20
2023-07-10T11:21:49.917Z,37.13
2023-07-10T11:22:48.968Z,37.47
2023-07-10T11:23:50.009Z,34.41
2023-07-10T11:24:50.077Z,38.30
2023-07-10T11:25:50.130Z,34.51
2023-07-10T11:26:49.172Z,37.63
2023-07-10T11:27:50.289Z,35.35
2023-07-10T11:29:05.862Z,33.64
2023-07-10T11:29:50.297Z,33.91
2023-07-10T11:30:50.327Z,34.52
2023-07-10T11:31:49.337Z,35.31
2023-07-10T11:32:50.356Z,38.39
2023-07-10T11:33:50.266Z,41.50
2023-07-10T11:34:50.256Z,41.08
2023-07-10T11:35:49.256Z,36.40
2023-07-10T11:36:49.246Z,40.18
2023-07-10T11:37:50.274Z,40.66
2023-07-10T11:38:50.253Z,33.24
2023-07-10T11:39:50.294Z,36.06
2023-07-10T11:40:49.250Z,31.43
2023-07-10T11:41:49.219Z,33.94
2023-07-10T11:42:49.225Z,33.07
2023-07-10T11:43:49.248Z,33.66
2023-07-10T11:44:50.206Z,36.45
2023-07-10T11:45:50.214Z,35.07
2023-07-10T11:46:50.200Z,36.64
2023-07-10T11:47:49.324Z,31.84
2023-07-10T11:48:50.175Z,37.77
2023-07-10T11:49:50.188Z,29.69
2023-07-10T11:50:50.162Z,31.04
2023-07-10T11:51:50.155Z,35.00
2023-07-10T11:52:49.232Z,29.72
2023-07-10T11:53:49.289Z,32.55
2023-07-10T11:54:50.353Z,33.21
2023-07-10T11:55:50.385Z,33.06
2023-07-10T11:56:50.458Z,32.34
2023-07-10T11:57:50.518Z,33.78
2023-07-10T11:58:49.565Z,35.83
2023-07-10T11:59:50.638Z,33.54
2023-07-10T12:00:50.741Z,32.50
2023-07-10T12:01:50.732Z,31.17
2023-07-10T12:02:50.221Z,31.73
2023-07-10T12:03:50.917Z,35.92
2023-07-10T12:04:50.905Z,35.16
2023-07-10T12:05:50.956Z,30.64
2023-07-10T12:06:49.992Z,33.74
2023-07-10T12:07:51.058Z,33.62
2023-07-10T12:08:51.109Z,31.48
2023-07-10T12:09:50.169Z,30.74
2023-07-10T12:10:51.202Z,33.78
2023-07-10T12:11:50.238Z,31.56
2023-07-10T12:12:50.289Z,31.50
2023-07-10T12:13:51.370Z,32.53
2023-07-10T12:14:51.390Z,28.64
2023-07-10T12:15:50.484Z,31.26
2023-07-10T12:17:04.597Z,32.06
2023-07-10T12:17:53.621Z,32.25
2023-07-10T12:18:50.518Z,32.29
2023-07-10T12:19:51.468Z,32.58
2023-07-10T12:20:51.454Z,33.55
2023-07-10T12:21:50.469Z,34.04
2023-07-10T12:22:51.435Z,34.40
2023-07-10T12:23:50.429Z,35.46
2023-07-10T12:24:51.418Z,34.94
2023-07-10T12:25:51.423Z,36.04
2023-07-10T12:27:23.551Z,36.56
2023-07-10T12:28:50.400Z,36.88
2023-07-10T12:29:51.371Z,37.41
2023-07-10T12:30:51.391Z,37.64
2023-07-10T12:31:51.446Z,38.45
2023-07-10T12:32:50.401Z,38.47
2023-07-10T12:33:51.379Z,38.02
2023-07-10T12:34:51.377Z,38.76
2023-07-10T12:35:50.374Z,36.66
2023-07-10T12:36:50.336Z,37.54
2023-07-10T12:37:51.336Z,36.44
2023-07-10T12:38:52.168Z,38.99
2023-07-10T12:39:50.317Z,38.12
2023-07-10T12:40:51.304Z,37.68
2023-07-10T12:41:51.309Z,37.95
2023-07-10T12:42:50.292Z,34.84
2023-07-10T12:43:50.297Z,35.39
2023-07-10T12:44:50.280Z,36.12
2023-07-10T12:45:51.268Z,37.09
2023-07-10T12:46:51.281Z,37.32
2023-07-10T12:47:58.683Z,37.89
2023-07-10T12:48:51.269Z,38.08
2023-07-10T12:49:50.258Z,38.44
2023-07-10T12:50:51.235Z,38.87
2023-07-10T12:51:52.254Z,39.08
2023-07-10T12:52:50.213Z,41.17
2023-07-10T12:53:51.210Z,39.58
2023-07-10T12:54:50.254Z,37.53